createdAt,value
2023-04-19T00:01:39.752Z,7.80
2023-04-19T00:06:46.504Z,8.80
2023-04-19T00:11:52.030Z,6.30
2023-04-19T00:16:57.549Z,5.50
2023-04-19T00:22:03.155Z,5.30
2023-04-19T00:27:09.310Z,8.90
2023-04-19T00:32:16.570Z,6.80
2023-04-19T00:37:22.161Z,6.50
2023-04-19T00:42:28.119Z,4.70
2023-04-19T00:47:34.281Z,6.60
2023-04-19T00:52:40.322Z,6.70
2023-04-19T00:57:46.552Z,7.10
2023-04-19T01:02:52.488Z,5.70
2023-04-19T01:07:58.402Z,6.90
2023-04-19T01:13:03.850Z,6.60
2023-04-19T01:18:09.356Z,6.70
2023-04-19T01:23:14.901Z,8.10
2023-04-19T01:28:20.274Z,8.60
2023-04-19T01:33:28.432Z,8.00
2023-04-19T01:38:35.062Z,7.70
2023-04-19T01:43:40.622Z,10.70
2023-04-19T01:48:47.649Z,9.00
2023-04-19T01:53:54.600Z,8.00
2023-04-19T01:59:01.854Z,7.70
2023-04-19T02:04:08.733Z,7.10
2023-04-19T02:09:14.472Z,8.00
2023-04-19T02:14:20.999Z,10.10
2023-04-19T02:19:26.633Z,7.40
2023-04-19T02:24:32.264Z,9.60
2023-04-19T02:29:37.870Z,8.60
2023-04-19T02:34:43.353Z,8.50
2023-04-19T02:39:48.815Z,8.10
2023-04-19T02:44:54.433Z,6.50
2023-04-19T02:50:03.200Z,7.20
2023-04-19T02:55:11.513Z,7.80
2023-04-19T03:00:18.747Z,8.90
2023-04-19T03:05:34.051Z,9.70
2023-04-19T03:10:39.718Z,8.80
2023-04-19T03:15:45.247Z,9.00
2023-04-19T03:20:50.785Z,8.90
2023-04-19T03:25:57.218Z,8.40
2023-04-19T03:31:15.780Z,8.90
2023-04-19T03:36:21.923Z,9.30
2023-04-19T03:41:28.724Z,12.20
2023-04-19T03:46:59.956Z,10.80
2023-04-19T03:52:07.055Z,10.50
2023-04-19T03:57:15.597Z,9.30
2023-04-19T04:02:21.526Z,12.60
2023-04-19T04:07:27.281Z,9.20
2023-04-19T04:12:33.567Z,10.50
2023-04-19T04:17:39.748Z,10.40
2023-04-19T04:22:47.420Z,10.00
2023-04-19T04:27:56.585Z,10.50
2023-04-19T04:33:03.513Z,9.00
2023-04-19T04:38:21.365Z,7.50
2023-04-19T04:43:33.642Z,9.10
2023-04-19T04:48:39.117Z,8.90
2023-04-19T04:53:44.830Z,8.40
2023-04-19T04:58:50.997Z,8.70
2023-04-19T05:04:05.725Z,7.80
2023-04-19T05:09:11.986Z,9.60
2023-04-19T05:14:18.377Z,7.40
2023-04-19T05:19:24.089Z,8.50
2023-04-19T05:24:34.916Z,10.80
2023-04-19T05:29:41.523Z,10.60
2023-04-19T05:34:47.208Z,9.00
2023-04-19T05:39:53.863Z,8.60
2023-04-19T05:44:59.528Z,9.80
2023-04-19T05:50:07.831Z,9.80
2023-04-19T05:55:18.301Z,13.70
2023-04-19T06:00:24.427Z,9.20
2023-04-19T06:05:34.097Z,10.10
2023-04-19T06:10:54.141Z,12.10
2023-04-19T06:16:03.129Z,10.80
2023-04-19T06:21:09.292Z,11.80
2023-04-19T06:26:15.085Z,12.40
2023-04-19T06:31:20.750Z,9.50
2023-04-19T06:36:26.925Z,11.30
2023-04-19T06:41:33.553Z,11.30
2023-04-19T06:46:39.438Z,12.20
2023-04-19T06:51:45.544Z,9.70
2023-04-19T06:56:51.455Z,7.60
2023-04-19T07:01:58.208Z,9.50
2023-04-19T07:07:04.194Z,8.30
2023-04-19T07:12:09.829Z,7.40
2023-04-19T07:17:15.613Z,8.70
2023-04-19T07:22:22.264Z,10.00
2023-04-19T07:27:27.807Z,10.50
2023-04-19T07:32:33.664Z,8.90
2023-04-19T07:37:39.248Z,9.90
2023-04-19T07:42:44.858Z,10.10
2023-04-19T07:47:50.889Z,8.90
2023-04-19T07:52:56.856Z,8.60
2023-04-19T07:58:02.862Z,8.80
2023-04-19T08:03:09.442Z,9.10
2023-04-19T08:08:16.118Z,8.00
2023-04-19T08:13:21.729Z,12.10
2023-04-19T08:18:27.369Z,9.50
2023-04-19T08:23:45.051Z,7.50
2023-04-19T08:28:53.702Z,13.80
2023-04-19T08:34:00.543Z,10.30
2023-04-19T08:39:12.242Z,11.20
2023-04-19T08:44:34.991Z,8.20
2023-04-19T08:49:43.446Z,8.40
2023-04-19T08:54:49.830Z,8.30
2023-04-19T08:59:55.802Z,7.40
2023-04-19T09:05:01.477Z,8.20
2023-04-19T09:10:09.762Z,8.20
2023-04-19T09:15:15.835Z,8.60
2023-04-19T09:20:37.751Z,6.80
2023-04-19T09:31:30.291Z,6.60
2023-04-19T09:36:42.428Z,9.60
2023-04-19T09:41:55.002Z,13.10
2023-04-19T09:47:00.897Z,10.10
2023-04-19T09:52:07.353Z,9.40
2023-04-19T09:57:13.630Z,7.30
2023-04-19T10:02:20.739Z,7.10
2023-04-19T10:07:30.883Z,10.20
2023-04-19T10:12:52.368Z,8.70
2023-04-19T10:18:03.519Z,8.80
2023-04-19T10:23:10.712Z,8.00
2023-04-19T10:28:17.222Z,9.70
2023-04-19T10:33:28.799Z,10.10
2023-04-19T10:38:40.088Z,9.40
2023-04-19T10:43:48.771Z,8.30
2023-04-19T10:48:57.736Z,11.40
2023-04-19T10:54:04.437Z,9.90
2023-04-19T10:59:22.256Z,10.80
2023-04-19T11:04:55.022Z,9.70
2023-04-19T11:10:00.452Z,9.70
2023-04-19T11:15:09.963Z,9.10
2023-04-19T11:20:15.783Z,9.70
2023-04-19T11:25:22.610Z,12.60
2023-04-19T11:30:32.271Z,6.70
2023-04-19T11:35:38.398Z,7.20
2023-04-19T11:40:44.318Z,7.00
2023-04-19T11:45:49.862Z,5.40
2023-04-19T11:51:00.168Z,5.80
2023-04-19T11:56:08.843Z,5.30
2023-04-19T12:01:16.072Z,6.70
2023-04-19T12:06:25.743Z,6.50
2023-04-19T12:11:44.846Z,7.80
2023-04-19T12:17:07.997Z,6.40
2023-04-19T12:22:15.934Z,5.50
2023-04-19T12:27:21.519Z,7.80
2023-04-19T12:32:27.275Z,8.10
2023-04-19T12:37:33.184Z,6.70
2023-04-19T12:42:38.790Z,6.70
2023-04-19T12:47:45.894Z,9.50
2023-04-19T12:52:53.575Z,6.70
2023-04-19T12:57:59.408Z,7.90
2023-04-19T13:03:05.562Z,6.50
2023-04-19T13:08:11.662Z,6.70
2023-04-19T13:13:17.333Z,8.80
2023-04-19T13:18:23.563Z,9.00
2023-04-19T13:23:29.225Z,6.50
2023-04-19T13:28:35.996Z,7.10
2023-04-19T13:33:42.015Z,7.50
2023-04-19T13:38:48.532Z,9.80
2023-04-19T13:43:55.231Z,7.00
2023-04-19T13:49:03.450Z,8.90
2023-04-19T13:54:10.085Z,6.10
2023-04-19T13:59:16.257Z,7.70
2023-04-19T14:04:22.453Z,7.80
2023-04-19T14:09:28.603Z,7.40
2023-04-19T14:14:34.962Z,10.90
2023-04-19T14:19:41.513Z,5.80
2023-04-19T14:24:47.428Z,9.60
2023-04-19T14:29:52.879Z,8.50
2023-04-19T14:34:58.846Z,8.20
2023-04-19T14:40:05.080Z,8.10
2023-04-19T14:45:12.016Z,10.70
2023-04-19T14:50:17.597Z,9.80
2023-04-19T14:55:25.122Z,6.70
2023-04-19T15:00:31.206Z,8.00
2023-04-19T15:05:37.326Z,10.10
2023-04-19T15:10:42.743Z,5.10
2023-04-19T15:15:48.623Z,5.90
2023-04-19T15:20:54.157Z,9.60
2023-04-19T15:25:59.721Z,12.10
2023-04-19T15:31:07.554Z,8.00
2023-04-19T15:36:13.302Z,11.40
2023-04-19T15:41:19.001Z,11.30
2023-04-19T15:46:24.598Z,8.30
2023-04-19T15:51:31.648Z,11.70
2023-04-19T15:56:37.151Z,15.00
2023-04-19T16:01:42.660Z,14.90
2023-04-19T16:06:48.162Z,23.50
2023-04-19T16:11:53.781Z,22.50
2023-04-19T16:17:00.690Z,15.10
2023-04-19T16:22:06.099Z,13.00
2023-04-19T16:27:11.541Z,22.20
2023-04-19T16:32:17.032Z,29.00
2023-04-19T16:37:22.757Z,33.20
2023-04-19T16:42:28.144Z,33.60
2023-04-19T16:47:34.893Z,23.80
2023-04-19T16:52:40.673Z,25.10
2023-04-19T16:57:46.086Z,23.60
2023-04-19T17:02:53.297Z,21.50
2023-04-19T17:07:59.001Z,25.10
2023-04-19T17:13:04.593Z,24.00
2023-04-19T17:18:10.157Z,27.80
2023-04-19T17:23:16.001Z,29.40
2023-04-19T17:28:21.644Z,39.00
2023-04-19T17:33:27.277Z,35.40
2023-04-19T17:38:34.526Z,29.40
2023-04-19T17:43:40.092Z,24.80
2023-04-19T17:48:45.690Z,26.90
2023-04-19T17:53:51.510Z,26.60
2023-04-19T17:58:56.995Z,28.50
2023-04-19T18:04:03.427Z,27.10
2023-04-19T18:09:09.339Z,29.10
2023-04-19T18:14:17.641Z,30.80
2023-04-19T18:19:24.164Z,40.70
2023-04-19T18:24:30.628Z,42.50
2023-04-19T18:29:36.316Z,33.40
2023-04-19T18:34:42.869Z,35.90
2023-04-19T18:39:49.122Z,50.50
2023-04-19T18:44:55.372Z,38.90
2023-04-19T18:50:05.793Z,35.80
2023-04-19T19:00:19.933Z,165.00
2023-04-19T19:05:25.836Z,104.80
2023-04-19T19:11:06.711Z,120.50
2023-04-19T19:15:57.575Z,69.30
2023-04-19T19:21:03.584Z,45.00
2023-04-19T19:26:11.287Z,29.50
2023-04-19T19:31:17.121Z,35.10
2023-04-19T19:36:22.818Z,34.40
2023-04-19T19:42:03.497Z,26.20
2023-04-19T19:46:56.739Z,22.60
2023-04-19T19:52:02.577Z,27.90
2023-04-19T19:58:01.581Z,24.50
2023-04-19T20:02:34.867Z,20.70
2023-04-19T20:08:00.559Z,23.40
2023-04-19T20:13:07.232Z,19.10
2023-04-19T20:18:13.041Z,21.50
2023-04-19T20:23:21.625Z,20.70
2023-04-19T20:28:27.216Z,18.90
2023-04-19T20:33:33.802Z,16.60
2023-04-19T20:38:39.853Z,18.90
2023-04-19T20:43:45.416Z,22.20
2023-04-19T20:48:50.998Z,23.80
2023-04-19T20:53:56.548Z,17.50
2023-04-19T20:59:02.030Z,16.50
2023-04-19T21:04:08.797Z,16.70
2023-04-19T21:09:14.671Z,18.60
2023-04-19T21:14:20.373Z,17.00
2023-04-19T21:19:26.537Z,16.80
2023-04-19T21:24:32.173Z,19.10
2023-04-19T21:29:37.729Z,66.60
2023-04-19T21:34:43.534Z,32.70
2023-04-19T21:39:49.455Z,36.30
2023-04-19T21:44:56.684Z,36.80
2023-04-19T21:50:03.151Z,40.30
2023-04-19T21:55:09.894Z,35.80
2023-04-19T22:00:18.287Z,34.20
2023-04-19T22:05:23.801Z,38.40
2023-04-19T22:10:31.481Z,37.90
2023-04-19T22:15:38.350Z,39.40
2023-04-19T22:20:44.343Z,39.90
2023-04-19T22:25:49.937Z,31.90
2023-04-19T22:30:55.797Z,30.00
2023-04-19T22:36:01.290Z,25.70
2023-04-19T22:41:07.071Z,27.00
2023-04-19T22:46:13.361Z,23.20
2023-04-19T22:51:19.059Z,23.90
2023-04-19T22:56:24.632Z,24.50
2023-04-19T23:01:30.431Z,21.70
2023-04-19T23:06:36.970Z,18.90
2023-04-19T23:11:42.647Z,17.90
2023-04-19T23:16:48.492Z,21.70
2023-04-19T23:21:54.226Z,19.80
2023-04-19T23:27:00.160Z,20.30
2023-04-19T23:32:05.889Z,22.60
2023-04-19T23:37:12.211Z,18.40
2023-04-19T23:42:17.765Z,19.40
2023-04-19T23:47:23.400Z,18.10
2023-04-19T23:52:29.217Z,17.80
2023-04-19T23:57:36.462Z,16.70
